Time;durP1;ratioP1;P1;durP2;ratioP2;P2;SDS_P1;SDS_P2;PMS_P1;PMS_P2;Temp;Humidity;BMP_temperature;BMP_pressure;BME280_temperature;BME280_humidity;BME280_pressure;Samples;Min_cycle;Max_cycle;Signal;HPM_P1;HPM_P2
2023/08/23 06:09:43;;;;;;;6.73;3.70;;;21.40;1.00;;;;;;5172314;23;20599;-67
2023/08/23 06:12:10;;;;;;;3.43;2.60;;;21.60;1.00;;;;;;4936264;29;20454;-68
2023/08/23 06:14:36;;;;;;;4.47;3.10;;;21.60;1.00;;;;;;4935299;29;20451;-68
2023/08/23 06:17:03;;;;;;;4.20;3.10;;;22.00;1.00;;;;;;4938359;29;20449;-69
2023/08/23 06:19:30;;;;;;;4.50;3.30;;;22.20;1.00;;;;;;4924085;29;20488;-68
2023/08/23 06:21:57;;;;;;;4.13;3.20;;;22.30;1.00;;;;;;4918152;29;20479;-67
2023/08/23 06:24:23;;;;;;;4.17;3.77;;;22.30;73.70;;;;;;4913525;29;20463;-67
2023/08/23 06:26:52;;;;;;;5.93;4.00;;;22.50;99.90;;;;;;4918241;29;20484;-66
2023/08/23 06:29:18;;;;;;;5.07;4.30;;;22.50;1.00;;;;;;4918184;29;20483;-67
2023/08/23 06:31:45;;;;;;;3.90;3.30;;;22.60;1.00;;;;;;4908636;29;20476;-68
2023/08/23 06:34:12;;;;;;;3.57;3.13;;;22.60;99.90;;;;;;4905399;29;20461;-67
2023/08/23 06:36:39;;;;;;;6.63;3.90;;;22.70;99.90;;;;;;4902312;29;20491;-66
2023/08/23 06:39:06;;;;;;;6.03;3.97;;;22.70;99.90;;;;;;4909069;29;20477;-68
2023/08/23 06:41:32;;;;;;;3.90;3.30;;;22.70;99.90;;;;;;4898811;29;20445;-67
2023/08/23 06:44:01;;;;;;;6.20;4.20;;;22.80;99.90;;;;;;4912548;29;20475;-66
2023/08/23 06:46:29;;;;;;;4.00;3.40;;;22.90;49.00;;;;;;4911155;29;20983;-67
2023/08/23 06:48:56;;;;;;;4.03;3.47;;;22.80;78.90;;;;;;4913880;29;20480;-67
2023/08/23 06:51:23;;;;;;;4.87;3.30;;;23.00;71.30;;;;;;4918412;29;20448;-67
2023/08/23 06:53:51;;;;;;;5.10;3.70;;;23.00;99.90;;;;;;4914809;29;20469;-67
2023/08/23 06:56:18;;;;;;;4.20;3.13;;;23.20;1.00;;;;;;4907545;29;20468;-67
2023/08/23 06:58:45;;;;;;;4.83;3.93;;;23.10;1.00;;;;;;4916518;29;20552;-66
2023/08/23 07:01:16;;;;;;;4.20;3.37;;;23.20;1.00;;;;;;4916688;29;20464;-66
2023/08/23 07:03:43;;;;;;;3.80;3.40;;;23.30;1.00;;;;;;4918310;29;20449;-66
2023/08/23 07:06:11;;;;;;;6.17;4.03;;;23.40;1.00;;;;;;4914146;29;20503;-66
2023/08/23 07:08:38;;;;;;;4.97;3.60;;;23.40;1.00;;;;;;4915314;29;20860;-65
2023/08/23 07:11:05;;;;;;;4.67;3.50;;;23.50;1.00;;;;;;4903715;29;20556;-67
2023/08/23 07:13:32;;;;;;;7.23;3.70;;;23.60;1.00;;;;;;4915402;29;20469;-66
2023/08/23 07:15:58;;;;;;;5.10;4.30;;;23.70;1.00;;;;;;4916144;29;20475;-66
2023/08/23 07:18:28;;;;;;;4.97;3.60;;;23.80;1.00;;;;;;4916228;29;20841;-66
2023/08/23 07:20:55;;;;;;;7.90;3.90;;;23.80;1.00;;;;;;4907965;29;20471;-65
2023/08/23 07:23:22;;;;;;;4.77;3.00;;;23.80;99.90;;;;;;4907109;29;20499;-66
2023/08/23 07:25:49;;;;;;;3.87;3.00;;;23.90;1.00;;;;;;4914267;29;20835;-67
2023/08/23 07:28:16;;;;;;;6.97;3.67;;;24.00;99.90;;;;;;4912478;29;20472;-67
2023/08/23 07:30:46;;;;;;;5.60;4.10;;;23.90;99.90;;;;;;4913043;29;20471;-66
2023/08/23 07:33:13;;;;;;;5.43;3.63;;;24.00;99.90;;;;;;4907716;29;20874;-65
2023/08/23 07:35:41;;;;;;;4.90;3.77;;;24.10;99.90;;;;;;4912041;29;20468;-65
2023/08/23 07:38:08;;;;;;;4.50;3.93;;;24.10;99.90;;;;;;4914279;29;20457;-66
2023/08/23 07:40:37;;;;;;;4.30;3.87;;;24.20;99.90;;;;;;4902171;29;20476;-66
2023/08/23 07:43:04;;;;;;;4.30;3.40;;;24.30;99.90;;;;;;4917262;29;20448;-67
2023/08/23 07:45:31;;;;;;;3.53;3.10;;;24.30;99.90;;;;;;4917384;29;20448;-66
2023/08/23 07:47:58;;;;;;;5.30;3.83;;;24.50;99.90;;;;;;4916895;29;20539;-66
2023/08/23 07:50:24;;;;;;;8.70;4.23;;;24.50;99.90;;;;;;4916953;29;20564;-66
2023/08/23 07:52:53;;;;;;;3.80;3.20;;;24.60;99.90;;;;;;4916166;29;20559;-68
2023/08/23 07:55:20;;;;;;;5.77;3.33;;;24.70;99.90;;;;;;4911730;29;20445;-66
2023/08/23 07:57:47;;;;;;;3.50;3.20;;;24.80;99.90;;;;;;4916541;29;20500;-66
2023/08/23 08:00:14;;;;;;;7.10;3.90;;;24.80;99.90;;;;;;4915238;29;20469;-64
2023/08/23 08:02:41;;;;;;;5.97;3.40;;;24.80;99.90;;;;;;4916463;29;20487;-66
2023/08/23 08:05:08;;;;;;;4.40;3.50;;;24.80;99.90;;;;;;4911875;29;20462;-66
2023/08/23 08:07:35;;;;;;;3.67;3.33;;;24.90;99.90;;;;;;4907409;29;20489;-65
2023/08/23 08:10:03;;;;;;;4.77;3.63;;;25.10;99.90;;;;;;4917724;29;20499;-66
2023/08/23 08:12:30;;;;;;;4.00;3.30;;;25.30;99.90;;;;;;4916066;29;20448;-67
2023/08/23 08:14:59;;;;;;;3.67;2.93;;;25.30;99.90;;;;;;4913570;29;20489;-66
2023/08/23 08:17:26;;;;;;;3.20;2.80;;;25.20;99.90;;;;;;4916970;29;20445;-66
2023/08/23 08:19:52;;;;;;;5.00;3.00;;;25.20;99.90;;;;;;4916078;29;20487;-66
2023/08/23 08:22:19;;;;;;;4.77;3.67;;;25.30;99.90;;;;;;4915686;29;21004;-67
2023/08/23 08:24:46;;;;;;;5.80;4.47;;;25.40;99.90;;;;;;4918100;29;20463;-67
2023/08/23 08:27:15;;;;;;;3.93;3.00;;;25.40;99.90;;;;;;4915525;29;20488;-65
2023/08/23 08:29:42;;;;;;;3.50;3.20;;;25.50;99.90;;;;;;4916325;29;20465;-66
2023/08/23 08:32:08;;;;;;;6.47;4.03;;;25.40;99.90;;;;;;4916426;29;20456;-66
2023/08/23 08:34:35;;;;;;;5.80;3.60;;;25.40;99.90;;;;;;4915168;29;20906;-66
2023/08/23 08:37:02;;;;;;;4.07;3.50;;;25.40;99.90;;;;;;4937985;23;20459;-67
2023/08/23 08:39:29;;;;;;;4.10;3.60;;;25.60;99.90;;;;;;4912251;29;20462;-67
2023/08/23 08:41:56;;;;;;;4.77;4.00;;;25.70;99.90;;;;;;4914718;29;20845;-67
2023/08/23 08:44:25;;;;;;;3.77;3.20;;;25.90;99.90;;;;;;4915404;29;20476;-67
2023/08/23 08:46:52;;;;;;;4.93;2.97;;;25.90;99.90;;;;;;4915714;29;20495;-67
2023/08/23 08:49:19;;;;;;;3.70;3.27;;;25.90;99.90;;;;;;4907476;29;20493;-67
2023/08/23 08:51:48;;;;;;;4.17;3.77;;;26.00;99.90;;;;;;4913875;29;20449;-67
2023/08/23 08:54:17;;;;;;;3.97;3.57;;;26.00;99.90;;;;;;4908217;29;20937;-67
2023/08/23 08:56:47;;;;;;;7.20;4.00;;;26.10;99.90;;;;;;4907761;29;20479;-67
2023/08/23 08:59:14;;;;;;;5.03;4.13;;;26.00;99.90;;;;;;4897801;29;20588;-67
2023/08/23 09:01:44;;;;;;;4.53;3.37;;;26.00;99.90;;;;;;4912777;29;20460;-67
2023/08/23 09:04:11;;;;;;;7.50;4.17;;;26.10;99.90;;;;;;4910645;29;20464;-68
2023/08/23 09:06:38;;;;;;;4.70;3.37;;;26.30;99.90;;;;;;4910141;29;20491;-68
2023/08/23 09:09:05;;;;;;;5.90;4.17;;;26.40;99.90;;;;;;4912849;29;20492;-68
2023/08/23 09:11:32;;;;;;;5.13;3.83;;;26.50;99.90;;;;;;4912525;29;20483;-68
2023/08/23 09:13:59;;;;;;;4.00;3.20;;;26.50;99.90;;;;;;4915998;29;20455;-68
2023/08/23 09:16:26;;;;;;;3.77;3.00;;;26.70;99.90;;;;;;4915827;29;20445;-67
2023/08/23 09:18:57;;;;;;;4.00;3.60;;;26.70;99.90;;;;;;4915238;29;20475;-68
2023/08/23 09:21:24;;;;;;;4.50;3.80;;;26.70;99.90;;;;;;4908220;29;20448;-69
2023/08/23 09:23:51;;;;;;;5.20;4.23;;;26.60;99.90;;;;;;4911117;29;20472;-68
2023/08/23 09:26:18;;;;;;;5.17;3.23;;;26.70;99.90;;;;;;4914927;29;20487;-68
2023/08/23 09:28:45;;;;;;;4.00;3.40;;;26.70;99.90;;;;;;4915672;29;20467;-69
2023/08/23 09:31:16;;;;;;;4.03;3.37;;;26.80;99.90;;;;;;4915611;29;20813;-69
2023/08/23 09:33:42;;;;;;;4.77;4.27;;;26.90;99.90;;;;;;4915649;29;20451;-68
2023/08/23 09:36:11;;;;;;;3.73;3.10;;;26.80;99.90;;;;;;4915759;29;20895;-68
2023/08/23 09:38:40;;;;;;;6.63;3.30;;;26.80;99.90;;;;;;4907423;29;20555;-69
2023/08/23 09:41:07;;;;;;;5.57;3.93;;;27.00;99.90;;;;;;4901965;29;20513;-68
2023/08/23 09:43:35;;;;;;;12.00;3.80;;;27.00;99.90;;;;;;4914256;29;20470;-68
2023/08/23 09:46:04;;;;;;;5.50;4.67;;;26.80;99.90;;;;;;4915431;29;20483;-68
2023/08/23 09:48:34;;;;;;;6.57;4.07;;;26.80;99.90;;;;;;4915437;29;20508;-68
2023/08/23 09:51:03;;;;;;;4.77;3.77;;;26.90;99.90;;;;;;4914302;29;20471;-68
2023/08/23 09:53:36;;;;;;;4.13;3.50;;;26.80;99.90;;;;;;4906690;29;20466;-68
2023/08/23 09:56:04;;;;;;;4.00;3.50;;;26.90;99.90;;;;;;4913257;29;20455;-68
2023/08/23 09:58:31;;;;;;;6.33;3.57;;;27.00;99.90;;;;;;4915403;29;20483;-68
2023/08/23 10:00:59;;;;;;;5.83;4.03;;;27.20;99.90;;;;;;4913849;29;20458;-68
2023/08/23 10:03:26;;;;;;;3.70;3.23;;;27.50;99.90;;;;;;4914935;29;20448;-68
2023/08/23 10:05:54;;;;;;;4.10;3.47;;;27.50;99.80;;;;;;4915274;29;20455;-69
2023/08/23 10:08:23;;;;;;;5.30;4.10;;;27.70;95.70;;;;;;4902101;29;21027;-67
2023/08/23 10:10:52;;;;;;;4.17;3.70;;;27.50;94.70;;;;;;4915263;29;20451;-68
2023/08/23 10:13:20;;;;;;;5.40;3.73;;;27.70;95.50;;;;;;4914875;29;20468;-68
2023/08/23 10:15:49;;;;;;;3.87;3.47;;;27.70;91.80;;;;;;4915399;29;20444;-67
2023/08/23 10:18:16;;;;;;;4.70;3.53;;;27.90;91.30;;;;;;4915224;29;20542;-68
2023/08/23 10:20:43;;;;;;;4.87;4.27;;;27.80;86.30;;;;;;4906276;29;20473;-69
2023/08/23 10:23:12;;;;;;;5.17;3.87;;;28.00;80.30;;;;;;4911163;29;20487;-68
2023/08/23 10:25:41;;;;;;;4.30;3.40;;;28.30;72.90;;;;;;4908442;29;20478;-68
2023/08/23 10:28:10;;;;;;;4.97;4.47;;;28.40;62.70;;;;;;4914770;29;20487;-68
2023/08/23 10:30:41;;;;;;;8.33;3.90;;;28.40;57.40;;;;;;4908884;29;20954;-68
2023/08/23 10:33:09;;;;;;;4.63;3.90;;;28.60;52.80;;;;;;4919092;29;20504;-68
2023/08/23 10:35:37;;;;;;;3.83;3.43;;;28.70;43.50;;;;;;4916179;29;20444;-69
2023/08/23 10:38:06;;;;;;;4.47;3.30;;;28.60;39.30;;;;;;4912567;29;20620;-68
2023/08/23 10:40:33;;;;;;;3.60;3.10;;;28.90;36.10;;;;;;4906175;29;20471;-68
2023/08/23 10:43:04;;;;;;;4.40;3.83;;;28.50;34.70;;;;;;4918374;29;20486;-68
2023/08/23 10:45:50;;;;;;;3.20;2.90;;;29.00;29.20;;;;;;4918048;29;20456;-68
2023/08/23 10:48:20;;;;;;;4.33;3.47;;;29.10;24.60;;;;;;4912188;29;20480;-69
2023/08/23 10:50:47;;;;;;;3.70;2.83;;;29.10;23.70;;;;;;4916257;29;20456;-68
2023/08/23 10:53:16;;;;;;;4.40;3.20;;;29.20;22.10;;;;;;4917231;29;20471;-68
2023/08/23 10:55:43;;;;;;;4.10;3.63;;;29.50;19.40;;;;;;4903393;29;20204;-68
2023/08/23 10:58:09;;;;;;;4.13;3.73;;;29.60;16.60;;;;;;4915352;29;20291;-68
2023/08/23 11:00:37;;;;;;;3.97;3.00;;;29.50;14.40;;;;;;4911142;29;20208;-68
2023/08/23 11:03:06;;;;;;;4.10;3.37;;;29.50;13.50;;;;;;4909990;29;20200;-68
2023/08/23 11:05:33;;;;;;;3.73;3.40;;;29.70;10.80;;;;;;4916455;29;20204;-68
2023/08/23 11:08:00;;;;;;;4.17;3.07;;;29.80;7.00;;;;;;4915422;29;20224;-68
2023/08/23 11:10:27;;;;;;;3.10;2.80;;;29.40;7.40;;;;;;4914795;29;20243;-68
2023/08/23 11:12:54;;;;;;;3.97;3.30;;;29.60;6.70;;;;;;4914254;29;20200;-68
2023/08/23 11:15:21;;;;;;;4.57;3.43;;;30.10;4.50;;;;;;4918293;29;20691;-68
2023/08/23 11:17:49;;;;;;;3.00;2.70;;;30.20;11.20;;;;;;4918853;29;20207;-68
2023/08/23 11:20:18;;;;;;;3.60;3.30;;;30.20;2.50;;;;;;4915264;29;20235;-69
2023/08/23 11:22:45;;;;;;;4.60;3.57;;;30.20;1.00;;;;;;4906803;29;20596;-69
2023/08/23 11:25:12;;;;;;;4.43;3.43;;;30.60;1.00;;;;;;4905372;29;20208;-68
2023/08/23 11:27:39;;;;;;;4.03;3.63;;;29.90;1.00;;;;;;4916258;29;20227;-69
2023/08/23 11:30:07;;;;;;;4.07;3.63;;;30.00;1.00;;;;;;4906300;29;20314;-69
2023/08/23 11:32:36;;;;;;;3.40;3.10;;;30.10;1.00;;;;;;4908996;29;20196;-68
2023/08/23 11:35:04;;;;;;;3.70;3.30;;;29.80;1.00;;;;;;4917631;29;20208;-68
2023/08/23 11:37:35;;;;;;;3.23;2.93;;;30.00;1.00;;;;;;4917324;29;20228;-68
2023/08/23 11:40:07;;;;;;;4.00;2.93;;;30.10;1.00;;;;;;4914214;29;20718;-69
2023/08/23 11:42:36;;;;;;;4.47;3.30;;;30.10;1.00;;;;;;4916219;29;20208;-68
2023/08/23 11:45:04;;;;;;;4.90;3.87;;;30.20;1.00;;;;;;4916416;29;20208;-68
2023/08/23 11:47:31;;;;;;;3.23;2.93;;;30.50;1.00;;;;;;4919286;29;20228;-68
2023/08/23 11:49:58;;;;;;;4.57;3.83;;;30.30;1.00;;;;;;4921309;29;20226;-69
2023/08/23 11:52:28;;;;;;;3.90;3.43;;;30.50;1.00;;;;;;4909212;29;20465;-68
2023/08/23 11:54:57;;;;;;;3.53;3.20;;;30.50;1.00;;;;;;4915698;29;20212;-68
2023/08/23 11:57:24;;;;;;;4.00;3.03;;;30.50;1.00;;;;;;4917241;29;20202;-68
2023/08/23 11:59:51;;;;;;;4.13;3.72;;;30.50;1.00;;;;;;4917217;29;20231;-68
2023/08/23 12:02:18;;;;;;;3.28;2.97;;;30.60;1.00;;;;;;4909836;29;20250;-69
2023/08/23 12:04:45;;;;;;;3.80;2.95;;;30.90;1.00;;;;;;4923174;29;20208;-69
2023/08/23 12:07:13;;;;;;;5.15;3.63;;;30.90;1.00;;;;;;4921544;29;20228;-68
2023/08/23 12:09:40;;;;;;;5.63;3.50;;;30.80;1.00;;;;;;4919136;29;20228;-68
2023/08/23 12:12:09;;;;;;;3.38;2.72;;;30.90;1.00;;;;;;4911872;29;20215;-68
2023/08/23 12:14:37;;;;;;;5.43;3.63;;;31.40;1.00;;;;;;4924231;29;20230;-68
2023/08/23 12:17:04;;;;;;;3.40;2.92;;;31.40;1.00;;;;;;4923658;29;20201;-68
2023/08/23 12:19:36;;;;;;;4.28;3.88;;;31.30;1.00;;;;;;4921671;29;20219;-68
2023/08/23 12:22:03;;;;;;;3.45;3.15;;;31.40;1.00;;;;;;4913610;29;20205;-68
2023/08/23 12:24:29;;;;;;;4.93;3.10;;;31.50;1.00;;;;;;4909443;29;20197;-68
2023/08/23 12:26:56;;;;;;;3.20;2.83;;;31.30;1.00;;;;;;4918075;29;20255;-68
2023/08/23 12:29:25;;;;;;;4.32;2.70;;;31.40;1.00;;;;;;4919209;29;20246;-68
2023/08/23 12:31:52;;;;;;;4.53;3.22;;;31.40;1.00;;;;;;4912509;29;20204;-68
2023/08/23 12:34:20;;;;;;;4.78;3.13;;;31.40;1.00;;;;;;4917102;29;20208;-68
2023/08/23 12:36:47;;;;;;;3.78;2.85;;;31.10;1.00;;;;;;4917780;29;20203;-69
2023/08/23 12:39:16;;;;;;;5.65;3.83;;;30.80;1.00;;;;;;4922752;29;20224;-68
2023/08/23 12:41:43;;;;;;;4.45;3.00;;;31.00;1.00;;;;;;4907747;29;20247;-69
2023/08/23 12:44:10;;;;;;;5.22;3.35;;;31.00;1.00;;;;;;4915299;29;20211;-68
2023/08/23 12:46:38;;;;;;;3.83;3.40;;;31.20;1.00;;;;;;4917509;29;20290;-69
2023/08/23 12:49:07;;;;;;;4.82;3.00;;;31.40;1.00;;;;;;4914836;29;20227;-68
2023/08/23 12:51:34;;;;;;;5.00;3.35;;;31.40;1.00;;;;;;4905430;29;20284;-68
2023/08/23 12:54:01;;;;;;;6.28;3.50;;;31.00;1.00;;;;;;4913328;29;20212;-67
2023/08/23 12:56:27;;;;;;;3.13;2.83;;;31.20;1.00;;;;;;4907552;29;20291;-68
2023/08/23 12:58:55;;;;;;;3.40;2.90;;;31.20;1.00;;;;;;4916980;29;20224;-69
2023/08/23 13:01:22;;;;;;;3.10;2.63;;;31.40;1.00;;;;;;4910741;29;20196;-70
2023/08/23 13:03:50;;;;;;;3.92;3.25;;;31.50;1.00;;;;;;4914452;29;20208;-68
2023/08/23 13:06:17;;;;;;;3.45;3.08;;;31.10;1.00;;;;;;4915420;29;20196;-69
2023/08/23 13:08:44;;;;;;;5.20;3.03;;;31.30;1.00;;;;;;4915679;29;20621;-70
2023/08/23 13:11:11;;;;;;;3.10;2.80;;;31.50;1.00;;;;;;4911553;29;20215;-67
2023/08/23 13:13:40;;;;;;;4.80;3.42;;;31.30;1.00;;;;;;4911005;29;20212;-68
2023/08/23 13:16:07;;;;;;;4.63;3.15;;;31.10;1.00;;;;;;4910389;29;20298;-69
2023/08/23 13:18:34;;;;;;;3.10;2.80;;;30.80;1.00;;;;;;4914669;29;20718;-68
2023/08/23 13:21:06;;;;;;;3.70;3.25;;;31.40;1.00;;;;;;4910858;29;20204;-68
2023/08/23 13:23:33;;;;;;;5.72;3.22;;;31.70;1.00;;;;;;4915229;29;20259;-67
2023/08/23 13:26:00;;;;;;;6.95;3.08;;;31.90;1.00;;;;;;4914461;29;20219;-69
2023/08/23 13:28:27;;;;;;;3.78;3.20;;;31.70;1.00;;;;;;4903420;29;20234;-67
2023/08/23 13:30:54;;;;;;;2.72;2.47;;;32.00;1.00;;;;;;4913220;29;20231;-67
2023/08/23 13:33:20;;;;;;;3.75;3.28;;;32.30;1.00;;;;;;4911506;29;20215;-68
2023/08/23 13:35:47;;;;;;;3.85;3.15;;;32.10;1.00;;;;;;4915056;29;20211;-67
2023/08/23 13:38:16;;;;;;;3.92;3.08;;;32.30;1.00;;;;;;4914870;29;20223;-68
2023/08/23 13:40:43;;;;;;;3.38;2.70;;;32.30;1.00;;;;;;4912149;29;20207;-67
2023/08/23 13:43:09;;;;;;;3.15;2.85;;;32.10;1.00;;;;;;4912839;29;20272;-67
2023/08/23 13:45:36;;;;;;;3.65;2.90;;;31.30;1.00;;;;;;4915782;29;20603;-68
2023/08/23 13:48:03;;;;;;;3.13;2.67;;;31.10;1.00;;;;;;4915478;29;20230;-68
2023/08/23 13:50:30;;;;;;;3.72;3.22;;;30.90;1.00;;;;;;4912833;29;20224;-67
2023/08/23 13:52:57;;;;;;;3.70;3.10;;;30.90;1.00;;;;;;4906102;29;20578;-67
2023/08/23 13:55:26;;;;;;;3.58;2.92;;;30.90;1.00;;;;;;4912771;29;20212;-68
2023/08/23 13:57:53;;;;;;;3.15;2.85;;;31.10;1.00;;;;;;4909898;29;20200;-68
2023/08/23 14:00:20;;;;;;;3.33;2.90;;;31.30;1.00;;;;;;4914610;29;20287;-68
2023/08/23 14:02:47;;;;;;;4.18;2.97;;;31.30;1.00;;;;;;4910850;29;20210;-68
2023/08/23 14:05:14;;;;;;;4.00;2.72;;;31.00;1.00;;;;;;4918888;29;20215;-68
2023/08/23 14:07:40;;;;;;;3.00;2.67;;;30.90;1.00;;;;;;4918982;29;20228;-67
2023/08/23 14:10:08;;;;;;;3.70;3.33;;;31.10;1.00;;;;;;4917119;29;20231;-68
2023/08/23 14:12:36;;;;;;;4.95;3.20;;;31.20;1.00;;;;;;4906813;29;20204;-68
2023/08/23 14:15:04;;;;;;;5.35;2.90;;;31.30;1.00;;;;;;4915406;29;20213;-67
2023/08/23 14:17:31;;;;;;;3.20;2.90;;;31.60;1.00;;;;;;4919071;29;20230;-66
2023/08/23 14:19:57;;;;;;;3.83;2.75;;;32.00;1.00;;;;;;4917929;29;20231;-67
2023/08/23 14:22:24;;;;;;;3.92;3.20;;;32.20;1.00;;;;;;4911923;29;20200;-68
2023/08/23 14:24:51;;;;;;;3.33;2.83;;;32.50;1.00;;;;;;4906027;29;20246;-68
2023/08/23 14:27:18;;;;;;;3.22;2.90;;;32.40;1.00;;;;;;4906788;29;20206;-68
2023/08/23 14:29:46;;;;;;;2.53;2.33;;;32.30;1.00;;;;;;4904781;29;20227;-68
2023/08/23 14:32:17;;;;;;;5.22;3.00;;;32.50;1.00;;;;;;4915500;29;20204;-68
2023/08/23 14:34:43;;;;;;;3.45;2.75;;;32.60;1.00;;;;;;4916641;29;20227;-69
2023/08/23 14:37:10;;;;;;;3.20;2.65;;;33.70;1.00;;;;;;4918274;29;20216;-68
2023/08/23 14:39:37;;;;;;;5.13;3.40;;;33.40;1.00;;;;;;4918255;29;20624;-68
2023/08/23 14:42:06;;;;;;;5.43;2.80;;;33.80;1.00;;;;;;4912951;29;20238;-68
2023/08/23 14:44:32;;;;;;;3.67;2.78;;;34.00;1.00;;;;;;4908750;29;20266;-68
2023/08/23 14:47:01;;;;;;;2.80;2.47;;;34.90;1.00;;;;;;4917606;29;20584;-68
2023/08/23 14:49:28;;;;;;;3.33;2.35;;;34.50;1.00;;;;;;4918062;29;20238;-69
2023/08/23 14:51:54;;;;;;;4.90;2.55;;;34.80;1.00;;;;;;4912416;29;20231;-69
2023/08/23 14:54:22;;;;;;;3.33;2.30;;;35.00;1.00;;;;;;4906566;29;20204;-68
2023/08/23 14:56:48;;;;;;;3.88;2.42;;;35.40;1.00;;;;;;4913646;29;20259;-68
2023/08/23 14:59:15;;;;;;;3.17;2.33;;;35.70;1.00;;;;;;4917989;29;20268;-71
2023/08/23 15:01:42;;;;;;;2.95;2.30;;;36.20;1.00;;;;;;4916870;29;20243;-69
2023/08/23 15:04:10;;;;;;;2.92;2.20;;;36.00;1.00;;;;;;4907417;29;20205;-68
2023/08/23 15:06:37;;;;;;;7.43;2.65;;;36.60;1.00;;;;;;4914576;29;20609;-68
2023/08/23 15:09:06;;;;;;;3.15;2.90;;;37.30;1.00;;;;;;4917429;29;20255;-70
2023/08/23 15:11:33;;;;;;;3.95;2.55;;;36.80;1.00;;;;;;4916099;29;20226;-68
2023/08/23 15:14:00;;;;;;;4.57;3.05;;;37.10;1.00;;;;;;4905537;29;20212;-68
2023/08/23 15:16:27;;;;;;;2.58;2.38;;;36.80;1.00;;;;;;4916030;29;20203;-68
2023/08/23 15:18:54;;;;;;;3.88;2.75;;;36.80;1.00;;;;;;4917729;29;20222;-69
2023/08/23 15:21:22;;;;;;;2.85;2.58;;;37.20;1.00;;;;;;4917712;29;20199;-68
2023/08/23 15:23:48;;;;;;;2.45;2.13;;;36.80;1.00;;;;;;4913391;29;20462;-68
2023/08/23 15:26:15;;;;;;;2.72;2.53;;;36.10;1.00;;;;;;4903706;29;20208;-68
2023/08/23 15:28:42;;;;;;;5.28;2.67;;;35.60;1.00;;;;;;4913228;29;20612;-68
2023/08/23 15:31:09;;;;;;;3.83;2.60;;;36.10;1.00;;;;;;4915336;29;20199;-69
2023/08/23 15:33:35;;;;;;;3.00;2.58;;;37.20;1.00;;;;;;4913811;29;20211;-68
2023/08/23 15:36:03;;;;;;;4.60;2.83;;;37.30;1.00;;;;;;4904635;29;20264;-69
2023/08/23 15:38:32;;;;;;;3.90;3.00;;;37.20;1.00;;;;;;4916782;29;20321;-68
2023/08/23 15:40:59;;;;;;;3.70;2.97;;;35.80;1.00;;;;;;4914407;29;20591;-68
2023/08/23 15:43:26;;;;;;;3.63;2.70;;;36.50;1.00;;;;;;4909358;29;20212;-68
2023/08/23 15:45:53;;;;;;;2.65;2.42;;;36.60;1.00;;;;;;4917040;29;20208;-69
2023/08/23 15:48:20;;;;;;;2.42;2.22;;;35.70;1.00;;;;;;4915672;29;20252;-68
2023/08/23 15:50:46;;;;;;;2.55;1.98;;;34.60;1.00;;;;;;4904053;29;20200;-69
2023/08/23 15:53:13;;;;;;;2.40;2.10;;;34.30;1.00;;;;;;4914509;29;20227;-69
2023/08/23 15:55:41;;;;;;;2.88;2.30;;;33.80;1.00;;;;;;4904127;29;20567;-68
2023/08/23 15:58:08;;;;;;;2.50;2.30;;;34.00;1.00;;;;;;4915444;29;20212;-68
2023/08/23 16:00:36;;;;;;;3.30;1.98;;;34.50;1.00;;;;;;4906244;29;20208;-68
2023/08/23 16:03:03;;;;;;;2.20;1.85;;;34.70;1.00;;;;;;4908692;29;20204;-69
2023/08/23 16:05:29;;;;;;;2.80;2.50;;;34.30;1.00;;;;;;4908473;29;20204;-68
2023/08/23 16:07:56;;;;;;;3.10;2.38;;;34.70;1.00;;;;;;4911086;29;20208;-68
2023/08/23 16:10:23;;;;;;;3.17;2.50;;;35.00;1.00;;;;;;4916512;29;20228;-68
2023/08/23 16:12:51;;;;;;;2.97;2.20;;;36.00;1.00;;;;;;4913936;29;20208;-69
2023/08/23 16:15:18;;;;;;;2.20;1.95;;;36.70;1.00;;;;;;4905657;29;20596;-68
2023/08/23 16:17:45;;;;;;;2.80;2.17;;;36.10;1.00;;;;;;4911166;29;20208;-68
2023/08/23 16:20:12;;;;;;;4.53;2.45;;;35.90;1.00;;;;;;4915440;29;20223;-68
2023/08/23 16:22:39;;;;;;;4.40;2.60;;;35.90;1.00;;;;;;4912173;29;20705;-68
2023/08/23 16:25:06;;;;;;;2.83;2.08;;;35.60;1.00;;;;;;4903165;29;20553;-68
2023/08/23 16:27:33;;;;;;;3.20;2.90;;;34.70;1.00;;;;;;4911166;29;20239;-68
2023/08/23 16:30:03;;;;;;;3.08;2.78;;;34.20;1.00;;;;;;4907365;29;20236;-68
2023/08/23 16:32:30;;;;;;;3.10;2.30;;;33.50;1.00;;;;;;4911327;29;20212;-68
2023/08/23 16:34:57;;;;;;;3.60;2.67;;;32.90;1.00;;;;;;4903557;29;20212;-69
2023/08/23 16:37:24;;;;;;;2.83;2.58;;;32.30;1.00;;;;;;4912443;29;20215;-69
2023/08/23 16:39:51;;;;;;;3.22;2.55;;;31.70;1.00;;;;;;4916261;29;20231;-68
2023/08/23 16:42:18;;;;;;;3.17;2.75;;;31.60;1.00;;;;;;4914879;29;20211;-68
2023/08/23 16:44:45;;;;;;;2.58;2.38;;;31.30;1.00;;;;;;4911287;29;20200;-68
2023/08/23 16:47:13;;;;;;;3.97;2.60;;;31.10;1.00;;;;;;4903344;29;20211;-68
2023/08/23 16:49:40;;;;;;;3.58;2.55;;;31.10;1.00;;;;;;4915026;29;20227;-68
2023/08/23 16:52:07;;;;;;;4.35;3.05;;;31.00;1.00;;;;;;4915235;29;20208;-68
2023/08/23 16:54:33;;;;;;;3.97;3.10;;;30.80;1.00;;;;;;4914788;29;20235;-68
2023/08/23 16:57:00;;;;;;;3.63;2.90;;;30.60;1.00;;;;;;4913984;29;20288;-68
2023/08/23 16:59:27;;;;;;;3.45;2.83;;;30.60;1.00;;;;;;4914447;29;20569;-68
2023/08/23 17:01:54;;;;;;;3.75;3.00;;;30.60;1.00;;;;;;4913955;29;20302;-68
2023/08/23 17:04:23;;;;;;;3.85;3.45;;;30.60;1.00;;;;;;4914184;29;20252;-68
2023/08/23 17:06:50;;;;;;;4.23;3.80;;;30.90;1.00;;;;;;4908569;29;20581;-68
2023/08/23 17:09:17;;;;;;;3.25;2.65;;;31.30;1.00;;;;;;4909752;29;20236;-68
2023/08/23 17:11:44;;;;;;;4.28;2.92;;;31.60;1.00;;;;;;4914993;29;20291;-68
2023/08/23 17:14:11;;;;;;;3.30;2.47;;;31.50;1.00;;;;;;4913214;29;20211;-68
2023/08/23 17:16:38;;;;;;;2.83;2.50;;;31.00;1.00;;;;;;4899082;29;20303;-68
2023/08/23 17:19:04;;;;;;;4.50;2.90;;;30.50;1.00;;;;;;4910197;29;20307;-68
2023/08/23 17:21:34;;;;;;;3.92;3.25;;;30.30;1.00;;;;;;4915536;29;20215;-69
2023/08/23 17:24:01;;;;;;;7.38;2.55;;;30.20;1.00;;;;;;4912806;29;20232;-68
2023/08/23 17:26:28;;;;;;;2.80;2.50;;;30.10;1.00;;;;;;4915094;29;20208;-68
2023/08/23 17:28:54;;;;;;;3.83;2.60;;;29.90;1.00;;;;;;4918092;29;20318;-69
2023/08/23 17:31:21;;;;;;;3.00;2.70;;;29.70;1.00;;;;;;4918325;29;20200;-68
2023/08/23 17:33:48;;;;;;;4.13;2.67;;;29.60;1.00;;;;;;4919793;29;20291;-68
2023/08/23 17:36:16;;;;;;;4.80;2.70;;;29.60;1.00;;;;;;4912783;29;20203;-68
2023/08/23 17:38:44;;;;;;;3.77;3.30;;;29.60;1.00;;;;;;4906834;29;20264;-69
2023/08/23 17:41:10;;;;;;;4.13;3.60;;;29.60;1.00;;;;;;4915412;29;20203;-68
2023/08/23 17:43:38;;;;;;;5.60;4.17;;;29.50;1.00;;;;;;4918571;29;20695;-69
2023/08/23 17:46:08;;;;;;;3.13;2.70;;;29.60;1.00;;;;;;4909179;29;20237;-69
2023/08/23 17:48:34;;;;;;;5.23;3.07;;;29.40;1.00;;;;;;4914438;29;20310;-69
2023/08/23 17:51:01;;;;;;;3.63;2.70;;;29.30;1.00;;;;;;4910647;29;20208;-68
2023/08/23 17:53:29;;;;;;;3.73;2.53;;;29.20;1.00;;;;;;4918857;29;20217;-68
2023/08/23 17:56:01;;;;;;;5.10;2.90;;;29.00;1.00;;;;;;4917017;29;20267;-68
2023/08/23 17:58:28;;;;;;;3.33;2.90;;;28.80;1.00;;;;;;4908067;29;20451;-68
2023/08/23 18:00:55;;;;;;;3.07;2.77;;;28.60;1.00;;;;;;4917376;29;20470;-68
2023/08/23 18:03:24;;;;;;;4.43;3.50;;;28.50;1.00;;;;;;4916784;29;20930;-68
2023/08/23 18:05:51;;;;;;;6.80;3.70;;;28.50;1.00;;;;;;4917397;29;20468;-68
2023/08/23 18:08:18;;;;;;;3.07;2.77;;;28.30;1.00;;;;;;4906109;29;20451;-68
2023/08/23 18:10:45;;;;;;;4.80;3.20;;;28.30;1.00;;;;;;4918094;29;20487;-69
2023/08/23 18:13:14;;;;;;;3.57;2.70;;;28.10;1.00;;;;;;4916202;29;20444;-68
2023/08/23 18:15:45;;;;;;;3.67;3.20;;;28.20;1.00;;;;;;4911084;29;20484;-68
2023/08/23 18:18:12;;;;;;;3.20;2.60;;;28.10;1.00;;;;;;4906224;29;20453;-68
2023/08/23 18:20:39;;;;;;;3.30;2.60;;;27.90;1.00;;;;;;4918765;29;20451;-69
2023/08/23 18:23:08;;;;;;;3.93;3.33;;;27.80;1.00;;;;;;4919195;29;20440;-68
2023/08/23 18:25:35;;;;;;;2.60;2.40;;;27.80;1.00;;;;;;4916940;29;20475;-68
2023/08/23 18:28:02;;;;;;;3.50;3.20;;;27.70;1.00;;;;;;4906836;29;20459;-68
2023/08/23 18:30:31;;;;;;;3.50;3.03;;;27.50;1.00;;;;;;4916214;29;20497;-68
2023/08/23 18:32:58;;;;;;;3.53;2.57;;;27.60;1.00;;;;;;4916515;29;20973;-69
2023/08/23 18:35:27;;;;;;;3.10;2.60;;;27.40;1.00;;;;;;4912959;29;20540;-68
2023/08/23 18:37:54;;;;;;;5.73;3.30;;;27.50;1.00;;;;;;4914668;29;20468;-69
2023/08/23 18:40:20;;;;;;;4.37;3.20;;;27.10;1.00;;;;;;4918293;29;20962;-68
2023/08/23 18:42:47;;;;;;;3.43;3.10;;;27.10;1.00;;;;;;4918645;29;20444;-69
2023/08/23 18:45:18;;;;;;;4.00;3.53;;;26.90;1.00;;;;;;4914061;29;20464;-68
2023/08/23 18:47:46;;;;;;;4.97;3.30;;;;;;;;;;4910938;29;20563;-69
2023/08/23 18:50:13;;;;;;;4.00;3.50;;;;;;;;;;4914673;29;20528;-68
2023/08/23 18:52:40;;;;;;;4.17;3.23;;;26.80;1.00;;;;;;4914469;29;20462;-68
2023/08/23 18:55:08;;;;;;;4.13;3.27;;;26.20;1.00;;;;;;4914131;29;20497;-69
2023/08/23 18:57:35;;;;;;;3.47;2.50;;;25.90;1.00;;;;;;4905403;29;20884;-67
2023/08/23 19:00:02;;;;;;;4.07;3.23;;;25.70;1.00;;;;;;4915663;29;20490;-68
2023/08/23 19:02:29;;;;;;;4.30;3.23;;;25.40;1.00;;;;;;4914682;29;20472;-67
2023/08/23 19:04:57;;;;;;;5.33;3.50;;;25.20;1.00;;;;;;4917694;29;20548;-69